West Ferrisburgh, Vermont
Current Conditions -  °F | °C
As of 4:35 PM on Saturday 25 Oct 2014 (Local Time) from K6B0 Reporting Station
Broken Clouds Broken Clouds  
Wind Chill: 56°   Ceiling: 9500
Heat Index: 56°   Visibility: 10mi
Dew Point: 45°   Wind: 9mph
Humidity: 65%   Direction: 160°SSE
Pressure: 29.57"   Gusts: NA
Location:  44.0804°N, 73.3324°W
Report Text: K6B0 252035Z AUTO 16008KT 10SM SCT060 BKN095 14/07 A2957 RMK AO2 T01350071
Loading
Personal Weather Stations






























Interactive Weather Map New forecast layout! Learn more

10-Day Weather Forecast

Advertisements
Track Severe Weather on mobile